Weather at Valleywise Health Medical Center Heliport

Public forecast

Using degrees Fahrenheit for public forecast. Weather courtesy of forecast.io.

Closest aviation weather report (METAR) to Valleywise Health Medical Center Heliport

Closest report is Phoenix Sky Harbor International Airport, 1.7 nm (3.1 km) SE.

2024/07/24 20:51 (retrieved 50 minutes ago)

KPHX 242051Z 29010G16KT 10SM FEW080 FEW130 FEW200 SCT270 44/14 A2992 RMK AO2 SLP106 T04390139 58021

Closest aviation forecast (TAF) to Valleywise Health Medical Center Heliport

Closest forecast is Phoenix Sky Harbor International Airport, 1.7 nm (3.1 km) SE.

2024/07/24 21:51 Ammendment (retrieved 0 seconds ago)

TAF AMD KPHX 242048Z 2421/2524 27009KT P6SM FEW150 SCT250 FM250100 06025G35KT 6SM HZ VCTS SCT100CB SCT150 SCT250 FM250300 27012G22KT 6SM HZ VCTS SCT100CB SCT150 BKN250 FM250400 19012KT P6SM FEW100 SCT150 BKN250 FM251000 VRB05KT P6SM SCT150 BKN250 FM251300 12005KT P6SM SCT150 BKN250 FM251800 27009KT P6SM FEW150 SCT250